CCA8537 ZSPD-ZPPP
Flight info
| Callsign | CCA8537 |
|---|---|
| Flight time | 3h 16m |
| Altitude | 36100 |
| Route | PIK93D PIKAS G330 UNTAN G345 OLRIS R343 MADUK W51 LEGIV/K0861S1160 W164 ADGOL W50 XSH W80 IDGAG A581 QNX W136 XISLI XISLI8F |
| Aircraft | B38M/M-SDE1FGHILORVWXY/HB1 |
Departure
| Time | 2026-05-08 08:19 |
|---|---|
| Airport | Shanghai Pudong International Airport (ZSPD) |
Arrival
| Time | 2026-05-08 11:35 |
|---|---|
| Airport | Kunming Changshui International Airport (ZPPP) |
| Time | Latitude | Longitude | Altitude | Speed | Heading |
|---|---|---|---|---|---|
| 2026-05-08 08:01 | 31.15202 | 121.79634 | 25 ft | 0 kts | 72° |
| 2026-05-08 08:07 | 31.15200 | 121.79628 | 25 ft | 2 kts | 72° |
| 2026-05-08 08:07 | 31.15194 | 121.79607 | 25 ft | 3 kts | 72° |
| 2026-05-08 08:07 | 31.15188 | 121.79584 | 29 ft | 3 kts | 72° |
| 2026-05-08 08:08 | 31.15182 | 121.79562 | 26 ft | 3 kts | 72° |
| 2026-05-08 08:08 | 31.15176 | 121.79543 | 28 ft | 3 kts | 76° |
| 2026-05-08 08:08 | 31.15176 | 121.79523 | 27 ft | 3 kts | 115° |
| 2026-05-08 08:08 | 31.15187 | 121.79509 | 27 ft | 3 kts | 156° |
| 2026-05-08 08:09 | 31.15200 | 121.79504 | 28 ft | 1 kts | 162° |
| 2026-05-08 08:09 | 31.15200 | 121.79503 | 28 ft | 2 kts | 162° |
| 2026-05-08 08:11 | 31.15196 | 121.79505 | 29 ft | 2 kts | 162° |
| 2026-05-08 08:11 | 31.15172 | 121.79514 | 29 ft | 6 kts | 161° |
| 2026-05-08 08:12 | 31.15116 | 121.79536 | 25 ft | 11 kts | 162° |
| 2026-05-08 08:12 | 31.15027 | 121.79569 | 25 ft | 15 kts | 162° |
| 2026-05-08 08:12 | 31.14953 | 121.79585 | 27 ft | 8 kts | 205° |
| 2026-05-08 08:12 | 31.14925 | 121.79522 | 27 ft | 10 kts | 252° |
| 2026-05-08 08:13 | 31.14901 | 121.79436 | 27 ft | 8 kts | 251° |
| 2026-05-08 08:13 | 31.14855 | 121.79408 | 27 ft | 10 kts | 169° |
| 2026-05-08 08:13 | 31.14758 | 121.79443 | 27 ft | 19 kts | 162° |
| 2026-05-08 08:13 | 31.14605 | 121.79501 | 25 ft | 25 kts | 162° |
| 2026-05-08 08:14 | 31.14442 | 121.79562 | 25 ft | 24 kts | 162° |
| 2026-05-08 08:14 | 31.14279 | 121.79624 | 26 ft | 25 kts | 161° |
| 2026-05-08 08:14 | 31.14111 | 121.79687 | 27 ft | 26 kts | 162° |
| 2026-05-08 08:14 | 31.13950 | 121.79748 | 25 ft | 24 kts | 162° |
| 2026-05-08 08:15 | 31.13784 | 121.79811 | 29 ft | 26 kts | 162° |
| 2026-05-08 08:15 | 31.13615 | 121.79875 | 27 ft | 25 kts | 162° |
| 2026-05-08 08:15 | 31.13455 | 121.79935 | 25 ft | 23 kts | 162° |
| 2026-05-08 08:15 | 31.13304 | 121.79992 | 27 ft | 23 kts | 162° |
| 2026-05-08 08:16 | 31.13147 | 121.80051 | 26 ft | 24 kts | 162° |
| 2026-05-08 08:16 | 31.12982 | 121.80114 | 25 ft | 25 kts | 162° |
| 2026-05-08 08:16 | 31.12844 | 121.80165 | 26 ft | 11 kts | 162° |
| 2026-05-08 08:16 | 31.12789 | 121.80165 | 25 ft | 8 kts | 230° |
| 2026-05-08 08:17 | 31.12769 | 121.80101 | 28 ft | 9 kts | 252° |
| 2026-05-08 08:17 | 31.12747 | 121.80023 | 26 ft | 11 kts | 251° |
| 2026-05-08 08:17 | 31.12721 | 121.79933 | 27 ft | 13 kts | 251° |
| 2026-05-08 08:17 | 31.12727 | 121.79880 | 26 ft | 3 kts | 341° |
| 2026-05-08 08:18 | 31.12733 | 121.79878 | 27 ft | 0 kts | 344° |
| 2026-05-08 08:18 | 31.12734 | 121.79878 | 27 ft | 2 kts | 344° |
| 2026-05-08 08:18 | 31.12946 | 121.79799 | 24 ft | 71 kts | 342° |
| 2026-05-08 08:18 | 31.13636 | 121.79537 | 28 ft | 137 kts | 342° |
| 2026-05-08 08:19 | 31.14702 | 121.79125 | 218 ft | 174 kts | 343° |
| 2026-05-08 08:19 | 31.15795 | 121.78686 | 1231 ft | 162 kts | 343° |
| 2026-05-08 08:19 | 31.16899 | 121.78233 | 1941 ft | 169 kts | 343° |
| 2026-05-08 08:19 | 31.18047 | 121.77778 | 2506 ft | 182 kts | 345° |
| 2026-05-08 08:20 | 31.19314 | 121.77282 | 2936 ft | 202 kts | 344° |
| 2026-05-08 08:20 | 31.20746 | 121.76718 | 3203 ft | 231 kts | 344° |
| 2026-05-08 08:20 | 31.22335 | 121.76075 | 3635 ft | 251 kts | 344° |
| 2026-05-08 08:20 | 31.24028 | 121.75390 | 4224 ft | 264 kts | 344° |
| 2026-05-08 08:21 | 31.25781 | 121.74678 | 5196 ft | 265 kts | 343° |
| 2026-05-08 08:21 | 31.27532 | 121.73965 | 6018 ft | 268 kts | 343° |
| 2026-05-08 08:21 | 31.29268 | 121.73258 | 6848 ft | 268 kts | 342° |
| 2026-05-08 08:21 | 31.31040 | 121.72537 | 7585 ft | 271 kts | 341° |
| 2026-05-08 08:22 | 31.32682 | 121.71441 | 8320 ft | 276 kts | 317° |
| 2026-05-08 08:22 | 31.33774 | 121.69579 | 9028 ft | 283 kts | 292° |
| 2026-05-08 08:22 | 31.34068 | 121.67295 | 9779 ft | 289 kts | 267° |
| 2026-05-08 08:22 | 31.33726 | 121.64948 | 10358 ft | 298 kts | 261° |
| 2026-05-08 08:23 | 31.33339 | 121.62511 | 10643 ft | 318 kts | 261° |
| 2026-05-08 08:23 | 31.32916 | 121.59895 | 10920 ft | 335 kts | 261° |
| 2026-05-08 08:23 | 31.32469 | 121.57155 | 11328 ft | 348 kts | 261° |
| 2026-05-08 08:23 | 31.32012 | 121.54376 | 12080 ft | 348 kts | 260° |
| 2026-05-08 08:24 | 31.31552 | 121.51587 | 12803 ft | 351 kts | 260° |
| 2026-05-08 08:24 | 31.31088 | 121.48774 | 13582 ft | 353 kts | 260° |
| 2026-05-08 08:24 | 31.30621 | 121.45946 | 14304 ft | 355 kts | 260° |
| 2026-05-08 08:24 | 31.30149 | 121.43096 | 15000 ft | 357 kts | 260° |
| 2026-05-08 08:25 | 31.29681 | 121.40272 | 15693 ft | 359 kts | 261° |
| 2026-05-08 08:25 | 31.29215 | 121.37393 | 16365 ft | 361 kts | 263° |
| 2026-05-08 08:25 | 31.29258 | 121.34465 | 17009 ft | 361 kts | 282° |
| 2026-05-08 08:25 | 31.30123 | 121.31711 | 17633 ft | 364 kts | 300° |
| 2026-05-08 08:26 | 31.31641 | 121.29328 | 18265 ft | 367 kts | 309° |
| 2026-05-08 08:26 | 31.33309 | 121.27041 | 18810 ft | 371 kts | 309° |
| 2026-05-08 08:26 | 31.35013 | 121.24759 | 19347 ft | 373 kts | 309° |
| 2026-05-08 08:26 | 31.36740 | 121.22472 | 19885 ft | 376 kts | 309° |
| 2026-05-08 08:27 | 31.38481 | 121.20184 | 20413 ft | 378 kts | 309° |
| 2026-05-08 08:27 | 31.40241 | 121.17882 | 20957 ft | 380 kts | 309° |
| 2026-05-08 08:27 | 31.42012 | 121.15569 | 21482 ft | 382 kts | 308° |
| 2026-05-08 08:27 | 31.43795 | 121.13254 | 21990 ft | 385 kts | 310° |
| 2026-05-08 08:28 | 31.45922 | 121.11356 | 22508 ft | 395 kts | 327° |
| 2026-05-08 08:28 | 31.48411 | 121.09953 | 23002 ft | 399 kts | 329° |
| 2026-05-08 08:28 | 31.50942 | 121.08559 | 23448 ft | 402 kts | 329° |
| 2026-05-08 08:28 | 31.53490 | 121.07178 | 23903 ft | 404 kts | 329° |
| 2026-05-08 08:29 | 31.56060 | 121.05801 | 24285 ft | 407 kts | 329° |
| 2026-05-08 08:29 | 31.58644 | 121.04423 | 24678 ft | 409 kts | 329° |
| 2026-05-08 08:29 | 31.61246 | 121.03037 | 25064 ft | 411 kts | 329° |
| 2026-05-08 08:29 | 31.63860 | 121.01645 | 25444 ft | 414 kts | 329° |
| 2026-05-08 08:30 | 31.66457 | 121.00262 | 25815 ft | 416 kts | 329° |
| 2026-05-08 08:30 | 31.69099 | 120.98853 | 26179 ft | 418 kts | 329° |
| 2026-05-08 08:30 | 31.74436 | 120.96006 | 26904 ft | 422 kts | 329° |
| 2026-05-08 08:31 | 31.77124 | 120.94570 | 27257 ft | 424 kts | 329° |
| 2026-05-08 08:31 | 31.79819 | 120.93130 | 27593 ft | 427 kts | 329° |
| 2026-05-08 08:31 | 31.82534 | 120.91678 | 27940 ft | 429 kts | 329° |
| 2026-05-08 08:31 | 31.85226 | 120.90237 | 28275 ft | 431 kts | 329° |
| 2026-05-08 08:32 | 31.87965 | 120.88771 | 28598 ft | 433 kts | 329° |
| 2026-05-08 08:32 | 31.90724 | 120.87293 | 28933 ft | 435 kts | 329° |
| 2026-05-08 08:32 | 31.93489 | 120.85811 | 29261 ft | 437 kts | 329° |
| 2026-05-08 08:32 | 31.96271 | 120.84317 | 29583 ft | 439 kts | 329° |
| 2026-05-08 08:33 | 31.99062 | 120.82817 | 29892 ft | 442 kts | 329° |
| 2026-05-08 08:33 | 32.01832 | 120.81327 | 30196 ft | 444 kts | 329° |
| 2026-05-08 08:33 | 32.04658 | 120.79806 | 30471 ft | 446 kts | 329° |
| 2026-05-08 08:33 | 32.07485 | 120.78285 | 30757 ft | 447 kts | 329° |
| 2026-05-08 08:34 | 32.10317 | 120.76755 | 31099 ft | 446 kts | 328° |
| 2026-05-08 08:34 | 32.12908 | 120.74836 | 31507 ft | 433 kts | 314° |
| 2026-05-08 08:34 | 32.14853 | 120.72272 | 31911 ft | 421 kts | 299° |
| 2026-05-08 08:34 | 32.16186 | 120.69229 | 32265 ft | 415 kts | 287° |
| 2026-05-08 08:35 | 32.16886 | 120.65931 | 32636 ft | 412 kts | 279° |
| 2026-05-08 08:35 | 32.17365 | 120.62595 | 32981 ft | 412 kts | 278° |
| 2026-05-08 08:35 | 32.17751 | 120.59251 | 33361 ft | 411 kts | 277° |
| 2026-05-08 08:35 | 32.18082 | 120.55906 | 33731 ft | 409 kts | 276° |
| 2026-05-08 08:36 | 32.18389 | 120.52563 | 34110 ft | 408 kts | 276° |
| 2026-05-08 08:36 | 32.18678 | 120.49231 | 34441 ft | 407 kts | 276° |
| 2026-05-08 08:36 | 32.18957 | 120.45922 | 34826 ft | 403 kts | 276° |
| 2026-05-08 08:36 | 32.19228 | 120.42643 | 35234 ft | 399 kts | 276° |
| 2026-05-08 08:37 | 32.19493 | 120.39425 | 35615 ft | 395 kts | 275° |
| 2026-05-08 08:37 | 32.19757 | 120.36200 | 36007 ft | 391 kts | 275° |
| 2026-05-08 08:37 | 32.20018 | 120.33007 | 36255 ft | 390 kts | 275° |
| 2026-05-08 08:37 | 32.20048 | 120.29829 | 36226 ft | 386 kts | 263° |
| 2026-05-08 08:38 | 32.19301 | 120.26784 | 36256 ft | 390 kts | 250° |
| 2026-05-08 08:38 | 32.18525 | 120.24862 | 36273 ft | 393 kts | 249° |
| 2026-05-08 08:38 | 32.17306 | 120.21951 | 36496 ft | 392 kts | 248° |
| 2026-05-08 08:38 | 32.15665 | 120.18214 | 37170 ft | 383 kts | 248° |
| 2026-05-08 08:39 | 32.14828 | 120.16345 | 37445 ft | 379 kts | 248° |
| 2026-05-08 08:39 | 32.13194 | 120.12735 | 37931 ft | 373 kts | 248° |
| 2026-05-08 08:39 | 32.12364 | 120.10916 | 38151 ft | 371 kts | 248° |
| 2026-05-08 08:39 | 32.11157 | 120.08280 | 38288 ft | 370 kts | 248° |
| 2026-05-08 08:40 | 32.08694 | 120.02917 | 38247 ft | 371 kts | 248° |
| 2026-05-08 08:40 | 32.06231 | 119.97564 | 38248 ft | 370 kts | 248° |
| 2026-05-08 08:41 | 32.03792 | 119.92224 | 38248 ft | 369 kts | 249° |
| 2026-05-08 08:41 | 32.01390 | 119.86913 | 38248 ft | 369 kts | 249° |
| 2026-05-08 08:42 | 31.98969 | 119.81573 | 38249 ft | 369 kts | 249° |
| 2026-05-08 08:42 | 31.96544 | 119.76230 | 38249 ft | 369 kts | 249° |
| 2026-05-08 08:43 | 31.94155 | 119.70919 | 38251 ft | 368 kts | 250° |
| 2026-05-08 08:43 | 31.91858 | 119.65537 | 38252 ft | 368 kts | 250° |
| 2026-05-08 08:44 | 31.89545 | 119.60150 | 38253 ft | 368 kts | 250° |
| 2026-05-08 08:44 | 31.87236 | 119.54781 | 38251 ft | 368 kts | 250° |
| 2026-05-08 08:45 | 31.84921 | 119.49409 | 38250 ft | 368 kts | 250° |
| 2026-05-08 08:45 | 31.82608 | 119.44048 | 38252 ft | 368 kts | 250° |
| 2026-05-08 08:46 | 31.80297 | 119.38721 | 38252 ft | 368 kts | 249° |
| 2026-05-08 08:46 | 31.77950 | 119.33374 | 38253 ft | 368 kts | 250° |
| 2026-05-08 08:47 | 31.75605 | 119.28037 | 38256 ft | 368 kts | 250° |
| 2026-05-08 08:47 | 31.73288 | 119.22768 | 38250 ft | 368 kts | 249° |
| 2026-05-08 08:48 | 31.70937 | 119.17431 | 38251 ft | 368 kts | 250° |
| 2026-05-08 08:48 | 31.68581 | 119.12092 | 38249 ft | 368 kts | 250° |
| 2026-05-08 08:49 | 31.66238 | 119.06748 | 38246 ft | 366 kts | 253° |
| 2026-05-08 08:49 | 31.65584 | 119.03953 | 38192 ft | 353 kts | 269° |
| 2026-05-08 08:49 | 31.65611 | 119.01085 | 38353 ft | 347 kts | 272° |
| 2026-05-08 08:50 | 31.65664 | 118.98256 | 38186 ft | 351 kts | 273° |
| 2026-05-08 08:50 | 31.65784 | 118.95436 | 38318 ft | 347 kts | 274° |
| 2026-05-08 08:50 | 31.66134 | 118.89745 | 38291 ft | 348 kts | 275° |
| 2026-05-08 08:51 | 31.66535 | 118.84062 | 38240 ft | 349 kts | 275° |
| 2026-05-08 08:51 | 31.66954 | 118.78375 | 38223 ft | 350 kts | 275° |
| 2026-05-08 08:52 | 31.67374 | 118.72680 | 38220 ft | 351 kts | 275° |
| 2026-05-08 08:52 | 31.67788 | 118.67035 | 38260 ft | 350 kts | 275° |
| 2026-05-08 08:53 | 31.68205 | 118.61335 | 38287 ft | 350 kts | 275° |
| 2026-05-08 08:53 | 31.68619 | 118.55625 | 38281 ft | 350 kts | 275° |
| 2026-05-08 08:54 | 31.69030 | 118.49915 | 38244 ft | 351 kts | 275° |
| 2026-05-08 08:54 | 31.69440 | 118.44198 | 38232 ft | 352 kts | 275° |
| 2026-05-08 08:55 | 31.69847 | 118.38472 | 38225 ft | 352 kts | 275° |
| 2026-05-08 08:55 | 31.70252 | 118.32746 | 38253 ft | 352 kts | 275° |
| 2026-05-08 08:56 | 31.70655 | 118.27022 | 38275 ft | 352 kts | 275° |
| 2026-05-08 08:56 | 31.71056 | 118.21290 | 38252 ft | 351 kts | 275° |
| 2026-05-08 08:57 | 31.71450 | 118.15613 | 38245 ft | 352 kts | 275° |
| 2026-05-08 08:57 | 31.71507 | 118.09885 | 38172 ft | 354 kts | 260° |
| 2026-05-08 08:58 | 31.70919 | 118.07079 | 38351 ft | 349 kts | 264° |
| 2026-05-08 08:58 | 31.70467 | 118.04290 | 38175 ft | 353 kts | 262° |
| 2026-05-08 08:58 | 31.69924 | 118.01471 | 38323 ft | 349 kts | 261° |
| 2026-05-08 08:58 | 31.69375 | 117.98701 | 38197 ft | 353 kts | 261° |
| 2026-05-08 08:59 | 31.68239 | 117.93118 | 38223 ft | 352 kts | 261° |
| 2026-05-08 08:59 | 31.67087 | 117.87532 | 38246 ft | 351 kts | 261° |
| 2026-05-08 09:00 | 31.65932 | 117.81959 | 38280 ft | 350 kts | 261° |
| 2026-05-08 09:00 | 31.64777 | 117.76395 | 38266 ft | 350 kts | 261° |
| 2026-05-08 09:01 | 31.63617 | 117.70822 | 38235 ft | 351 kts | 261° |
| 2026-05-08 09:01 | 31.62464 | 117.65295 | 38224 ft | 352 kts | 261° |
| 2026-05-08 09:02 | 31.61298 | 117.59714 | 38227 ft | 352 kts | 261° |
| 2026-05-08 09:02 | 31.60275 | 117.54113 | 38231 ft | 351 kts | 262° |
| 2026-05-08 09:03 | 31.59270 | 117.48508 | 38265 ft | 351 kts | 262° |
| 2026-05-08 09:03 | 31.58261 | 117.42900 | 38267 ft | 351 kts | 262° |
| 2026-05-08 09:04 | 31.57258 | 117.37331 | 38268 ft | 351 kts | 262° |
| 2026-05-08 09:04 | 31.56244 | 117.31717 | 38257 ft | 352 kts | 262° |
| 2026-05-08 09:05 | 31.55247 | 117.26091 | 38244 ft | 352 kts | 262° |
| 2026-05-08 09:05 | 31.54252 | 117.20464 | 38250 ft | 353 kts | 262° |
| 2026-05-08 09:06 | 31.53254 | 117.14830 | 38252 ft | 353 kts | 262° |
| 2026-05-08 09:06 | 31.52252 | 117.09192 | 38247 ft | 353 kts | 262° |
| 2026-05-08 09:07 | 31.51246 | 117.03547 | 38247 ft | 353 kts | 262° |
| 2026-05-08 09:07 | 31.50239 | 116.97912 | 38248 ft | 353 kts | 262° |
| 2026-05-08 09:08 | 31.49229 | 116.92272 | 38244 ft | 353 kts | 262° |
| 2026-05-08 09:08 | 31.48205 | 116.86637 | 38245 ft | 355 kts | 259° |
| 2026-05-08 09:09 | 31.47203 | 116.83995 | 38191 ft | 365 kts | 243° |
| 2026-05-08 09:09 | 31.45708 | 116.81621 | 38329 ft | 363 kts | 244° |
| 2026-05-08 09:09 | 31.44241 | 116.79162 | 38194 ft | 367 kts | 242° |
| 2026-05-08 09:09 | 31.42739 | 116.76782 | 38300 ft | 366 kts | 242° |
| 2026-05-08 09:10 | 31.39661 | 116.72003 | 38283 ft | 367 kts | 242° |
| 2026-05-08 09:10 | 31.36554 | 116.67242 | 38251 ft | 368 kts | 242° |
| 2026-05-08 09:11 | 31.33434 | 116.62482 | 38246 ft | 369 kts | 242° |
| 2026-05-08 09:11 | 31.30334 | 116.57754 | 38239 ft | 369 kts | 242° |
| 2026-05-08 09:12 | 31.27196 | 116.52975 | 38250 ft | 371 kts | 242° |
| 2026-05-08 09:12 | 31.24051 | 116.48192 | 38284 ft | 370 kts | 242° |
| 2026-05-08 09:13 | 31.20900 | 116.43407 | 38287 ft | 370 kts | 242° |
| 2026-05-08 09:13 | 31.17749 | 116.38620 | 38249 ft | 371 kts | 241° |
| 2026-05-08 09:14 | 31.14588 | 116.33832 | 38230 ft | 372 kts | 241° |
| 2026-05-08 09:14 | 31.11449 | 116.29079 | 38206 ft | 372 kts | 241° |
| 2026-05-08 09:15 | 31.08294 | 116.24309 | 38222 ft | 372 kts | 241° |
| 2026-05-08 09:15 | 31.05137 | 116.19538 | 38262 ft | 370 kts | 242° |
| 2026-05-08 09:16 | 31.01980 | 116.14776 | 38252 ft | 370 kts | 242° |
| 2026-05-08 09:16 | 30.98850 | 116.10061 | 38258 ft | 370 kts | 241° |
| 2026-05-08 09:17 | 30.95690 | 116.05302 | 38244 ft | 372 kts | 241° |
| 2026-05-08 09:17 | 30.92514 | 116.00527 | 38240 ft | 372 kts | 241° |
| 2026-05-08 09:18 | 30.89338 | 115.95756 | 38235 ft | 372 kts | 241° |
| 2026-05-08 09:18 | 30.86156 | 115.90983 | 38232 ft | 373 kts | 241° |
| 2026-05-08 09:19 | 30.82996 | 115.86204 | 38234 ft | 372 kts | 241° |
| 2026-05-08 09:19 | 30.79846 | 115.81427 | 38234 ft | 373 kts | 241° |
| 2026-05-08 09:20 | 30.76689 | 115.76639 | 38232 ft | 373 kts | 241° |
| 2026-05-08 09:20 | 30.73553 | 115.71892 | 38217 ft | 372 kts | 241° |
| 2026-05-08 09:21 | 30.70392 | 115.67111 | 38205 ft | 373 kts | 241° |
| 2026-05-08 09:23 | 30.59328 | 115.50420 | 38227 ft | 373 kts | 241° |
| 2026-05-08 09:23 | 30.56155 | 115.45649 | 38220 ft | 372 kts | 241° |
| 2026-05-08 09:24 | 30.53007 | 115.40917 | 38218 ft | 373 kts | 241° |
| 2026-05-08 09:24 | 30.49828 | 115.36147 | 38216 ft | 373 kts | 241° |
| 2026-05-08 09:25 | 30.46651 | 115.31385 | 38220 ft | 373 kts | 241° |
| 2026-05-08 09:25 | 30.44434 | 115.26256 | 38209 ft | 348 kts | 266° |
| 2026-05-08 09:26 | 30.44428 | 115.20674 | 38168 ft | 348 kts | 273° |
| 2026-05-08 09:26 | 30.44797 | 115.15091 | 38205 ft | 348 kts | 275° |
| 2026-05-08 09:27 | 30.45220 | 115.10466 | 38219 ft | 348 kts | 276° |
| 2026-05-08 09:27 | 30.45867 | 115.03976 | 38217 ft | 349 kts | 276° |
| 2026-05-08 09:28 | 30.46347 | 114.99287 | 38230 ft | 349 kts | 276° |
| 2026-05-08 09:28 | 30.46917 | 114.93728 | 38230 ft | 350 kts | 276° |
| 2026-05-08 09:29 | 30.47491 | 114.88110 | 38225 ft | 350 kts | 276° |
| 2026-05-08 09:29 | 30.48064 | 114.82479 | 38227 ft | 351 kts | 276° |
| 2026-05-08 09:30 | 30.48635 | 114.76843 | 38225 ft | 352 kts | 276° |
| 2026-05-08 09:30 | 30.49201 | 114.71240 | 38226 ft | 353 kts | 276° |
| 2026-05-08 09:31 | 30.49769 | 114.65580 | 38224 ft | 353 kts | 276° |
| 2026-05-08 09:31 | 30.50335 | 114.59911 | 38227 ft | 354 kts | 276° |
| 2026-05-08 09:32 | 30.50901 | 114.54234 | 38224 ft | 354 kts | 276° |
| 2026-05-08 09:32 | 30.51464 | 114.48556 | 38229 ft | 354 kts | 276° |
| 2026-05-08 09:33 | 30.52020 | 114.42922 | 38225 ft | 354 kts | 276° |
| 2026-05-08 09:33 | 30.52578 | 114.37243 | 38230 ft | 354 kts | 276° |
| 2026-05-08 09:34 | 30.53134 | 114.31559 | 38234 ft | 354 kts | 276° |
| 2026-05-08 09:34 | 30.53687 | 114.25871 | 38230 ft | 354 kts | 276° |
| 2026-05-08 09:35 | 30.54234 | 114.20228 | 38229 ft | 355 kts | 276° |
| 2026-05-08 09:35 | 30.54773 | 114.14528 | 38232 ft | 355 kts | 276° |
| 2026-05-08 09:36 | 30.55317 | 114.08837 | 38233 ft | 355 kts | 276° |
| 2026-05-08 09:36 | 30.55870 | 114.03145 | 38235 ft | 355 kts | 276° |
| 2026-05-08 09:37 | 30.56404 | 113.97433 | 38235 ft | 355 kts | 276° |
| 2026-05-08 09:37 | 30.56932 | 113.91782 | 38234 ft | 355 kts | 276° |
| 2026-05-08 09:38 | 30.57422 | 113.86074 | 38217 ft | 355 kts | 270° |
| 2026-05-08 09:38 | 30.57018 | 113.83275 | 38187 ft | 358 kts | 253° |
| 2026-05-08 09:38 | 30.55894 | 113.80654 | 38328 ft | 360 kts | 248° |
| 2026-05-08 09:38 | 30.54668 | 113.78113 | 38182 ft | 365 kts | 247° |
| 2026-05-08 09:39 | 30.53378 | 113.75604 | 38275 ft | 364 kts | 246° |
| 2026-05-08 09:39 | 30.50679 | 113.70585 | 38248 ft | 366 kts | 245° |
| 2026-05-08 09:40 | 30.47924 | 113.65586 | 38242 ft | 367 kts | 245° |
| 2026-05-08 09:40 | 30.45150 | 113.60592 | 38230 ft | 368 kts | 245° |
| 2026-05-08 09:41 | 30.42388 | 113.55631 | 38233 ft | 369 kts | 245° |
| 2026-05-08 09:41 | 30.39595 | 113.50618 | 38230 ft | 370 kts | 245° |
| 2026-05-08 09:42 | 30.36792 | 113.45598 | 38226 ft | 371 kts | 245° |
| 2026-05-08 09:42 | 30.33982 | 113.40569 | 38228 ft | 372 kts | 244° |
| 2026-05-08 09:43 | 30.31186 | 113.35571 | 38220 ft | 373 kts | 244° |
| 2026-05-08 09:43 | 30.28361 | 113.30528 | 38241 ft | 373 kts | 244° |
| 2026-05-08 09:44 | 30.25533 | 113.25487 | 38256 ft | 372 kts | 244° |
| 2026-05-08 09:44 | 30.22727 | 113.20490 | 38261 ft | 372 kts | 244° |
| 2026-05-08 09:45 | 30.19940 | 113.15432 | 38255 ft | 372 kts | 245° |
| 2026-05-08 09:45 | 30.17154 | 113.10375 | 38255 ft | 372 kts | 245° |
| 2026-05-08 09:46 | 30.14363 | 113.05310 | 38242 ft | 373 kts | 245° |
| 2026-05-08 09:46 | 30.11599 | 113.00300 | 38237 ft | 373 kts | 245° |
| 2026-05-08 09:47 | 30.08798 | 112.95232 | 38242 ft | 374 kts | 245° |
| 2026-05-08 09:47 | 30.05997 | 112.90168 | 38242 ft | 374 kts | 245° |
| 2026-05-08 09:48 | 30.03192 | 112.85104 | 38247 ft | 374 kts | 245° |
| 2026-05-08 09:48 | 30.00384 | 112.80041 | 38249 ft | 374 kts | 245° |
| 2026-05-08 09:49 | 29.97600 | 112.75026 | 38244 ft | 374 kts | 245° |
| 2026-05-08 09:49 | 29.94787 | 112.69968 | 38244 ft | 374 kts | 245° |
| 2026-05-08 09:50 | 29.91971 | 112.64909 | 38243 ft | 374 kts | 245° |
| 2026-05-08 09:50 | 29.89177 | 112.59896 | 38244 ft | 374 kts | 245° |
| 2026-05-08 09:51 | 29.86353 | 112.54836 | 38248 ft | 375 kts | 244° |
| 2026-05-08 09:51 | 29.83532 | 112.49787 | 38248 ft | 374 kts | 245° |
| 2026-05-08 09:52 | 29.80707 | 112.44737 | 38246 ft | 374 kts | 244° |
| 2026-05-08 09:52 | 29.77880 | 112.39690 | 38246 ft | 375 kts | 244° |
| 2026-05-08 09:53 | 29.75075 | 112.34685 | 38242 ft | 375 kts | 244° |
| 2026-05-08 09:53 | 29.72227 | 112.29638 | 38242 ft | 375 kts | 244° |
| 2026-05-08 09:54 | 29.69376 | 112.24593 | 38246 ft | 375 kts | 244° |
| 2026-05-08 09:54 | 29.66545 | 112.19590 | 38246 ft | 376 kts | 244° |
| 2026-05-08 09:55 | 29.63687 | 112.14544 | 38249 ft | 376 kts | 244° |
| 2026-05-08 09:55 | 29.60825 | 112.09501 | 38248 ft | 376 kts | 244° |
| 2026-05-08 09:56 | 29.57985 | 112.04500 | 38244 ft | 376 kts | 244° |
| 2026-05-08 09:56 | 29.55122 | 111.99465 | 38246 ft | 376 kts | 244° |
| 2026-05-08 09:57 | 29.50832 | 111.91932 | 38254 ft | 376 kts | 244° |
| 2026-05-08 09:57 | 29.47960 | 111.86896 | 38251 ft | 376 kts | 244° |
| 2026-05-08 09:58 | 29.45088 | 111.81868 | 38258 ft | 376 kts | 244° |
| 2026-05-08 09:58 | 29.42238 | 111.76886 | 38255 ft | 376 kts | 244° |
| 2026-05-08 09:59 | 29.39358 | 111.71854 | 38248 ft | 376 kts | 244° |
| 2026-05-08 09:59 | 29.36483 | 111.66837 | 38247 ft | 377 kts | 244° |
| 2026-05-08 10:00 | 29.34256 | 111.61580 | 38318 ft | 365 kts | 253° |
| 2026-05-08 10:00 | 29.33280 | 111.58846 | 38195 ft | 368 kts | 253° |
| 2026-05-08 10:00 | 29.32332 | 111.56150 | 38288 ft | 366 kts | 253° |
| 2026-05-08 10:01 | 29.30435 | 111.50711 | 38252 ft | 366 kts | 253° |
| 2026-05-08 10:01 | 29.28539 | 111.45262 | 38221 ft | 369 kts | 253° |
| 2026-05-08 10:02 | 29.26653 | 111.39852 | 38237 ft | 369 kts | 253° |
| 2026-05-08 10:02 | 29.24751 | 111.34402 | 38250 ft | 368 kts | 253° |
| 2026-05-08 10:03 | 29.22844 | 111.28946 | 38281 ft | 368 kts | 253° |
| 2026-05-08 10:03 | 29.20936 | 111.23495 | 38280 ft | 367 kts | 253° |
| 2026-05-08 10:04 | 29.19043 | 111.18097 | 38260 ft | 368 kts | 253° |
| 2026-05-08 10:04 | 29.17130 | 111.12647 | 38258 ft | 369 kts | 253° |
| 2026-05-08 10:05 | 29.15211 | 111.07193 | 38280 ft | 369 kts | 253° |
| 2026-05-08 10:05 | 29.13291 | 111.01738 | 38289 ft | 368 kts | 253° |
| 2026-05-08 10:06 | 29.11383 | 110.96328 | 38292 ft | 369 kts | 253° |
| 2026-05-08 10:06 | 29.09454 | 110.90870 | 38292 ft | 369 kts | 253° |
| 2026-05-08 10:07 | 29.07523 | 110.85413 | 38230 ft | 368 kts | 253° |
| 2026-05-08 10:07 | 29.05600 | 110.79978 | 38223 ft | 369 kts | 253° |
| 2026-05-08 10:08 | 29.03689 | 110.74592 | 38252 ft | 369 kts | 253° |
| 2026-05-08 10:08 | 29.01779 | 110.69137 | 38269 ft | 370 kts | 253° |
| 2026-05-08 10:09 | 28.99862 | 110.63664 | 38280 ft | 371 kts | 253° |
| 2026-05-08 10:09 | 28.97945 | 110.58197 | 38281 ft | 369 kts | 253° |
| 2026-05-08 10:10 | 28.96024 | 110.52725 | 38278 ft | 371 kts | 253° |
| 2026-05-08 10:10 | 28.94111 | 110.47284 | 38258 ft | 372 kts | 253° |
| 2026-05-08 10:11 | 28.92175 | 110.41783 | 38267 ft | 374 kts | 253° |
| 2026-05-08 10:11 | 28.90233 | 110.36275 | 38270 ft | 373 kts | 253° |
| 2026-05-08 10:12 | 28.88284 | 110.30764 | 38279 ft | 375 kts | 252° |
| 2026-05-08 10:12 | 28.86338 | 110.25256 | 38269 ft | 374 kts | 253° |
| 2026-05-08 10:13 | 28.84402 | 110.19795 | 38261 ft | 374 kts | 252° |
| 2026-05-08 10:13 | 28.82446 | 110.14277 | 38259 ft | 376 kts | 252° |
| 2026-05-08 10:14 | 28.80817 | 110.09696 | 38280 ft | 376 kts | 252° |
| 2026-05-08 10:14 | 28.78847 | 110.04164 | 38277 ft | 377 kts | 253° |
| 2026-05-08 10:15 | 28.76559 | 109.97743 | 38278 ft | 376 kts | 252° |
| 2026-05-08 10:15 | 28.74907 | 109.93113 | 38271 ft | 376 kts | 252° |
| 2026-05-08 10:16 | 28.72945 | 109.87626 | 38261 ft | 376 kts | 252° |
| 2026-05-08 10:16 | 28.70963 | 109.82088 | 38267 ft | 377 kts | 252° |
| 2026-05-08 10:17 | 28.68975 | 109.76542 | 38267 ft | 378 kts | 252° |
| 2026-05-08 10:17 | 28.66980 | 109.70984 | 38267 ft | 378 kts | 252° |
| 2026-05-08 10:18 | 28.65029 | 109.65467 | 38272 ft | 378 kts | 253° |
| 2026-05-08 10:18 | 28.63114 | 109.59873 | 38265 ft | 378 kts | 253° |
| 2026-05-08 10:19 | 28.61197 | 109.54290 | 38257 ft | 378 kts | 253° |
| 2026-05-08 10:20 | 28.58319 | 109.45937 | 38266 ft | 379 kts | 252° |
| 2026-05-08 10:20 | 28.55955 | 109.40534 | 38274 ft | 381 kts | 248° |
| 2026-05-08 10:21 | 28.53584 | 109.35122 | 38269 ft | 382 kts | 249° |
| 2026-05-08 10:21 | 28.51222 | 109.29700 | 38272 ft | 382 kts | 249° |
| 2026-05-08 10:22 | 28.48878 | 109.24320 | 38284 ft | 382 kts | 248° |
| 2026-05-08 10:22 | 28.46512 | 109.18892 | 38284 ft | 383 kts | 249° |
| 2026-05-08 10:23 | 28.44128 | 109.13464 | 38294 ft | 383 kts | 248° |
| 2026-05-08 10:23 | 28.41728 | 109.08052 | 38249 ft | 383 kts | 248° |
| 2026-05-08 10:24 | 28.39347 | 109.02685 | 38260 ft | 384 kts | 248° |
| 2026-05-08 10:24 | 28.36938 | 108.97266 | 38281 ft | 384 kts | 248° |
| 2026-05-08 10:25 | 28.34524 | 108.91841 | 38293 ft | 385 kts | 248° |
| 2026-05-08 10:25 | 28.32121 | 108.86451 | 38292 ft | 385 kts | 248° |
| 2026-05-08 10:26 | 28.29697 | 108.81012 | 38302 ft | 386 kts | 249° |
| 2026-05-08 10:26 | 28.27264 | 108.75567 | 38271 ft | 385 kts | 248° |
| 2026-05-08 10:27 | 28.24836 | 108.70140 | 38273 ft | 386 kts | 248° |
| 2026-05-08 10:27 | 28.22395 | 108.64693 | 38274 ft | 388 kts | 248° |
| 2026-05-08 10:28 | 28.19969 | 108.59281 | 38265 ft | 388 kts | 248° |
| 2026-05-08 10:28 | 28.17519 | 108.53827 | 38267 ft | 388 kts | 248° |
| 2026-05-08 10:29 | 28.15066 | 108.48371 | 38269 ft | 389 kts | 248° |
| 2026-05-08 10:29 | 28.12602 | 108.42900 | 38283 ft | 390 kts | 248° |
| 2026-05-08 10:30 | 28.10156 | 108.37474 | 38281 ft | 389 kts | 247° |
| 2026-05-08 10:30 | 28.07651 | 108.31932 | 38288 ft | 390 kts | 248° |
| 2026-05-08 10:31 | 28.05188 | 108.26481 | 38287 ft | 388 kts | 247° |
| 2026-05-08 10:31 | 28.02719 | 108.21027 | 38272 ft | 389 kts | 247° |
| 2026-05-08 10:32 | 28.00250 | 108.15580 | 38302 ft | 390 kts | 247° |
| 2026-05-08 10:32 | 27.97775 | 108.10127 | 38275 ft | 389 kts | 247° |
| 2026-05-08 10:33 | 27.95311 | 108.04708 | 38301 ft | 390 kts | 247° |
| 2026-05-08 10:33 | 27.92830 | 107.99257 | 38282 ft | 389 kts | 247° |
| 2026-05-08 10:34 | 27.90341 | 107.93795 | 38292 ft | 390 kts | 247° |
| 2026-05-08 10:34 | 27.87854 | 107.88345 | 38293 ft | 390 kts | 247° |
| 2026-05-08 10:35 | 27.85380 | 107.82929 | 38296 ft | 389 kts | 247° |
| 2026-05-08 10:35 | 27.82901 | 107.77488 | 38301 ft | 390 kts | 248° |
| 2026-05-08 10:36 | 27.80462 | 107.72011 | 38311 ft | 390 kts | 247° |
| 2026-05-08 10:36 | 27.78020 | 107.66532 | 38305 ft | 390 kts | 247° |
| 2026-05-08 10:37 | 27.75575 | 107.61068 | 38312 ft | 390 kts | 247° |
| 2026-05-08 10:37 | 27.73124 | 107.55591 | 38307 ft | 390 kts | 247° |
| 2026-05-08 10:38 | 27.70669 | 107.50116 | 38306 ft | 391 kts | 247° |
| 2026-05-08 10:38 | 27.68225 | 107.44668 | 38305 ft | 391 kts | 247° |
| 2026-05-08 10:39 | 27.65763 | 107.39190 | 38309 ft | 391 kts | 247° |
| 2026-05-08 10:39 | 27.63298 | 107.33711 | 38313 ft | 391 kts | 247° |
| 2026-05-08 10:40 | 27.60831 | 107.28236 | 38312 ft | 391 kts | 247° |
| 2026-05-08 10:40 | 27.58360 | 107.22759 | 38310 ft | 392 kts | 247° |
| 2026-05-08 10:41 | 27.55901 | 107.17303 | 38311 ft | 392 kts | 247° |
| 2026-05-08 10:41 | 27.53423 | 107.11814 | 38313 ft | 392 kts | 247° |
| 2026-05-08 10:42 | 27.50951 | 107.06346 | 38310 ft | 392 kts | 247° |
| 2026-05-08 10:42 | 27.48471 | 107.00865 | 38312 ft | 393 kts | 247° |
| 2026-05-08 10:43 | 27.46028 | 106.95406 | 38305 ft | 392 kts | 247° |
| 2026-05-08 10:43 | 27.43569 | 106.89905 | 38313 ft | 393 kts | 247° |
| 2026-05-08 10:44 | 27.41112 | 106.84417 | 38318 ft | 393 kts | 247° |
| 2026-05-08 10:44 | 27.38647 | 106.78917 | 38316 ft | 393 kts | 247° |
| 2026-05-08 10:45 | 27.36173 | 106.73418 | 38318 ft | 393 kts | 247° |
| 2026-05-08 10:45 | 27.33712 | 106.67966 | 38307 ft | 393 kts | 247° |
| 2026-05-08 10:46 | 27.31233 | 106.62479 | 38315 ft | 394 kts | 246° |
| 2026-05-08 10:46 | 27.28750 | 106.56992 | 38305 ft | 393 kts | 247° |
| 2026-05-08 10:47 | 27.26263 | 106.51503 | 38305 ft | 393 kts | 247° |
| 2026-05-08 10:47 | 27.23776 | 106.46022 | 38306 ft | 394 kts | 247° |
| 2026-05-08 10:48 | 27.21281 | 106.40528 | 38298 ft | 394 kts | 247° |
| 2026-05-08 10:48 | 27.18802 | 106.35074 | 38306 ft | 394 kts | 247° |
| 2026-05-08 10:49 | 27.16302 | 106.29576 | 38289 ft | 394 kts | 247° |
| 2026-05-08 10:49 | 27.13798 | 106.24079 | 38291 ft | 394 kts | 247° |
| 2026-05-08 10:50 | 27.11313 | 106.18631 | 38293 ft | 395 kts | 247° |
| 2026-05-08 10:50 | 27.08809 | 106.13147 | 38293 ft | 395 kts | 247° |
| 2026-05-08 10:51 | 27.06302 | 106.07664 | 38284 ft | 395 kts | 246° |
| 2026-05-08 10:51 | 27.04095 | 106.02064 | 38276 ft | 388 kts | 260° |
| 2026-05-08 10:52 | 27.02908 | 105.96135 | 38294 ft | 390 kts | 259° |
| 2026-05-08 10:52 | 27.01749 | 105.90210 | 38286 ft | 391 kts | 259° |
| 2026-05-08 10:53 | 27.00610 | 105.84250 | 38286 ft | 391 kts | 260° |
| 2026-05-08 10:53 | 26.99468 | 105.78264 | 38293 ft | 392 kts | 260° |
| 2026-05-08 10:54 | 26.98333 | 105.72327 | 38284 ft | 391 kts | 260° |
| 2026-05-08 10:54 | 26.97186 | 105.66337 | 38284 ft | 392 kts | 260° |
| 2026-05-08 10:55 | 26.96033 | 105.60338 | 38282 ft | 393 kts | 259° |
| 2026-05-08 10:55 | 26.94889 | 105.54394 | 38280 ft | 392 kts | 260° |
| 2026-05-08 10:56 | 26.93734 | 105.48410 | 38278 ft | 393 kts | 259° |
| 2026-05-08 10:56 | 26.92575 | 105.42422 | 38281 ft | 393 kts | 259° |
| 2026-05-08 10:57 | 26.91413 | 105.36427 | 38272 ft | 393 kts | 259° |
| 2026-05-08 10:57 | 26.89677 | 105.27503 | 38283 ft | 392 kts | 259° |
| 2026-05-08 10:58 | 26.88511 | 105.21523 | 38276 ft | 393 kts | 259° |
| 2026-05-08 10:58 | 26.87340 | 105.15536 | 38269 ft | 393 kts | 259° |
| 2026-05-08 10:59 | 26.86167 | 105.09548 | 38282 ft | 394 kts | 258° |
| 2026-05-08 10:59 | 26.84989 | 105.03550 | 38266 ft | 394 kts | 259° |
| 2026-05-08 11:00 | 26.83807 | 104.97550 | 38276 ft | 395 kts | 259° |
| 2026-05-08 11:00 | 26.82624 | 104.91547 | 38279 ft | 395 kts | 259° |
| 2026-05-08 11:01 | 26.81438 | 104.85576 | 38256 ft | 395 kts | 259° |
| 2026-05-08 11:01 | 26.80239 | 104.79569 | 38272 ft | 396 kts | 259° |
| 2026-05-08 11:02 | 26.78431 | 104.70536 | 38258 ft | 396 kts | 259° |
| 2026-05-08 11:03 | 26.77187 | 104.64543 | 38251 ft | 396 kts | 253° |
| 2026-05-08 11:03 | 26.75969 | 104.61772 | 38247 ft | 401 kts | 238° |
| 2026-05-08 11:03 | 26.74087 | 104.59434 | 38259 ft | 409 kts | 227° |
| 2026-05-08 11:04 | 26.69794 | 104.55249 | 38263 ft | 413 kts | 226° |
| 2026-05-08 11:04 | 26.66108 | 104.51824 | 38246 ft | 414 kts | 225° |
| 2026-05-08 11:05 | 26.61635 | 104.47741 | 38234 ft | 415 kts | 225° |
| 2026-05-08 11:05 | 26.56415 | 104.43004 | 38184 ft | 415 kts | 225° |
| 2026-05-08 11:06 | 26.52664 | 104.39603 | 38240 ft | 416 kts | 225° |
| 2026-05-08 11:06 | 26.48187 | 104.35550 | 38230 ft | 417 kts | 224° |
| 2026-05-08 11:07 | 26.43664 | 104.31458 | 38233 ft | 418 kts | 224° |
| 2026-05-08 11:07 | 26.39148 | 104.27377 | 38216 ft | 417 kts | 224° |
| 2026-05-08 11:08 | 26.34627 | 104.23296 | 38223 ft | 418 kts | 224° |
| 2026-05-08 11:08 | 26.30133 | 104.19244 | 38214 ft | 418 kts | 224° |
| 2026-05-08 11:09 | 26.25599 | 104.15159 | 38217 ft | 418 kts | 224° |
| 2026-05-08 11:09 | 26.21065 | 104.11080 | 37782 ft | 418 kts | 224° |
| 2026-05-08 11:09 | 26.18815 | 104.09057 | 37355 ft | 414 kts | 224° |
| 2026-05-08 11:10 | 26.16572 | 104.07041 | 36932 ft | 414 kts | 224° |
| 2026-05-08 11:10 | 26.14329 | 104.05026 | 36520 ft | 415 kts | 224° |
| 2026-05-08 11:10 | 26.12103 | 104.03028 | 36106 ft | 417 kts | 224° |
| 2026-05-08 11:10 | 26.09842 | 104.00999 | 35704 ft | 419 kts | 223° |
| 2026-05-08 11:11 | 26.07564 | 103.98955 | 35298 ft | 420 kts | 223° |
| 2026-05-08 11:11 | 26.05281 | 103.96909 | 34904 ft | 422 kts | 223° |
| 2026-05-08 11:11 | 26.02988 | 103.94852 | 34512 ft | 424 kts | 223° |
| 2026-05-08 11:11 | 26.00684 | 103.92790 | 34131 ft | 425 kts | 223° |
| 2026-05-08 11:12 | 25.98415 | 103.90684 | 33694 ft | 423 kts | 229° |
| 2026-05-08 11:12 | 25.96657 | 103.88121 | 33250 ft | 416 kts | 242° |
| 2026-05-08 11:12 | 25.95155 | 103.85354 | 32843 ft | 419 kts | 241° |
| 2026-05-08 11:12 | 25.93665 | 103.82609 | 32442 ft | 420 kts | 242° |
| 2026-05-08 11:13 | 25.92172 | 103.79819 | 32050 ft | 420 kts | 242° |
| 2026-05-08 11:13 | 25.90685 | 103.77018 | 31645 ft | 421 kts | 242° |
| 2026-05-08 11:13 | 25.89139 | 103.74253 | 31257 ft | 423 kts | 234° |
| 2026-05-08 11:13 | 25.87032 | 103.71948 | 30853 ft | 430 kts | 220° |
| 2026-05-08 11:14 | 25.84603 | 103.69994 | 30482 ft | 432 kts | 220° |
| 2026-05-08 11:14 | 25.82162 | 103.68032 | 30087 ft | 432 kts | 219° |
| 2026-05-08 11:14 | 25.79713 | 103.66091 | 29642 ft | 433 kts | 219° |
| 2026-05-08 11:14 | 25.77278 | 103.64178 | 29201 ft | 434 kts | 219° |
| 2026-05-08 11:15 | 25.74807 | 103.62246 | 28769 ft | 435 kts | 219° |
| 2026-05-08 11:15 | 25.72331 | 103.60311 | 28333 ft | 436 kts | 219° |
| 2026-05-08 11:15 | 25.69847 | 103.58373 | 27909 ft | 437 kts | 219° |
| 2026-05-08 11:15 | 25.67343 | 103.56420 | 27480 ft | 438 kts | 219° |
| 2026-05-08 11:16 | 25.64876 | 103.54497 | 27084 ft | 439 kts | 219° |
| 2026-05-08 11:16 | 25.62365 | 103.52540 | 26670 ft | 440 kts | 219° |
| 2026-05-08 11:16 | 25.59858 | 103.50589 | 26268 ft | 441 kts | 218° |
| 2026-05-08 11:16 | 25.57344 | 103.48632 | 25875 ft | 442 kts | 218° |
| 2026-05-08 11:17 | 25.54829 | 103.46675 | 25490 ft | 441 kts | 218° |
| 2026-05-08 11:17 | 25.52319 | 103.44724 | 25108 ft | 439 kts | 218° |
| 2026-05-08 11:17 | 25.49848 | 103.42804 | 24743 ft | 437 kts | 219° |
| 2026-05-08 11:17 | 25.47359 | 103.40870 | 24368 ft | 435 kts | 218° |
| 2026-05-08 11:18 | 25.44889 | 103.38953 | 24009 ft | 433 kts | 218° |
| 2026-05-08 11:18 | 25.42433 | 103.37047 | 23634 ft | 430 kts | 219° |
| 2026-05-08 11:18 | 25.39988 | 103.35152 | 23202 ft | 428 kts | 218° |
| 2026-05-08 11:18 | 25.37560 | 103.33269 | 22775 ft | 425 kts | 218° |
| 2026-05-08 11:19 | 25.35143 | 103.31397 | 22352 ft | 423 kts | 218° |
| 2026-05-08 11:19 | 25.32737 | 103.29534 | 21928 ft | 421 kts | 218° |
| 2026-05-08 11:19 | 25.30341 | 103.27680 | 21511 ft | 419 kts | 218° |
| 2026-05-08 11:19 | 25.27958 | 103.25836 | 21118 ft | 417 kts | 218° |
| 2026-05-08 11:20 | 25.25587 | 103.24002 | 20739 ft | 414 kts | 218° |
| 2026-05-08 11:20 | 25.23226 | 103.22178 | 20351 ft | 413 kts | 218° |
| 2026-05-08 11:20 | 25.20907 | 103.20387 | 19969 ft | 411 kts | 218° |
| 2026-05-08 11:20 | 25.18563 | 103.18576 | 19598 ft | 409 kts | 218° |
| 2026-05-08 11:21 | 25.16238 | 103.16782 | 19226 ft | 407 kts | 218° |
| 2026-05-08 11:21 | 25.13922 | 103.14997 | 18859 ft | 405 kts | 218° |
| 2026-05-08 11:21 | 25.11615 | 103.13217 | 18484 ft | 403 kts | 218° |
| 2026-05-08 11:21 | 25.09318 | 103.11447 | 18057 ft | 401 kts | 218° |
| 2026-05-08 11:22 | 25.07037 | 103.09690 | 17634 ft | 399 kts | 218° |
| 2026-05-08 11:22 | 25.04794 | 103.07963 | 17210 ft | 397 kts | 218° |
| 2026-05-08 11:22 | 25.02538 | 103.06227 | 16789 ft | 395 kts | 218° |
| 2026-05-08 11:22 | 25.00289 | 103.04497 | 16373 ft | 393 kts | 217° |
| 2026-05-08 11:23 | 24.98056 | 103.02781 | 15952 ft | 390 kts | 217° |
| 2026-05-08 11:23 | 24.95833 | 103.01072 | 15536 ft | 388 kts | 217° |
| 2026-05-08 11:23 | 24.93622 | 102.99373 | 15126 ft | 386 kts | 217° |
| 2026-05-08 11:23 | 24.91424 | 102.97686 | 14718 ft | 384 kts | 217° |
| 2026-05-08 11:24 | 24.89242 | 102.96011 | 14318 ft | 379 kts | 217° |
| 2026-05-08 11:24 | 24.87090 | 102.94359 | 13902 ft | 374 kts | 216° |
| 2026-05-08 11:24 | 24.84970 | 102.92734 | 13455 ft | 368 kts | 216° |
| 2026-05-08 11:24 | 24.82878 | 102.91131 | 13001 ft | 364 kts | 216° |
| 2026-05-08 11:25 | 24.80805 | 102.89542 | 12549 ft | 361 kts | 216° |
| 2026-05-08 11:25 | 24.78782 | 102.87993 | 12223 ft | 355 kts | 216° |
| 2026-05-08 11:25 | 24.76770 | 102.86452 | 11926 ft | 348 kts | 216° |
| 2026-05-08 11:25 | 24.74806 | 102.84948 | 11771 ft | 338 kts | 216° |
| 2026-05-08 11:26 | 24.72923 | 102.83508 | 11775 ft | 322 kts | 216° |
| 2026-05-08 11:26 | 24.71239 | 102.81970 | 11767 ft | 306 kts | 233° |
| 2026-05-08 11:26 | 24.70397 | 102.79910 | 11755 ft | 291 kts | 262° |
| 2026-05-08 11:26 | 24.70568 | 102.77775 | 11740 ft | 284 kts | 288° |
| 2026-05-08 11:27 | 24.71601 | 102.75939 | 11628 ft | 285 kts | 310° |
| 2026-05-08 11:27 | 24.72909 | 102.74319 | 11496 ft | 279 kts | 309° |
| 2026-05-08 11:27 | 24.74162 | 102.72725 | 11376 ft | 271 kts | 309° |
| 2026-05-08 11:27 | 24.75375 | 102.71191 | 11272 ft | 261 kts | 309° |
| 2026-05-08 11:28 | 24.76557 | 102.69702 | 11122 ft | 255 kts | 309° |
| 2026-05-08 11:28 | 24.77801 | 102.68336 | 10962 ft | 253 kts | 326° |
| 2026-05-08 11:28 | 24.79472 | 102.67831 | 10782 ft | 254 kts | 3° |
| 2026-05-08 11:28 | 24.81189 | 102.68295 | 10667 ft | 257 kts | 18° |
| 2026-05-08 11:29 | 24.82881 | 102.68952 | 10530 ft | 258 kts | 18° |
| 2026-05-08 11:29 | 24.84519 | 102.69696 | 10408 ft | 258 kts | 26° |
| 2026-05-08 11:29 | 24.86056 | 102.70723 | 10282 ft | 258 kts | 35° |
| 2026-05-08 11:29 | 24.87498 | 102.71909 | 10152 ft | 258 kts | 38° |
| 2026-05-08 11:30 | 24.88904 | 102.73126 | 10027 ft | 256 kts | 39° |
| 2026-05-08 11:30 | 24.90289 | 102.74334 | 9883 ft | 250 kts | 39° |
| 2026-05-08 11:30 | 24.91618 | 102.75492 | 9849 ft | 236 kts | 39° |
| 2026-05-08 11:30 | 24.92845 | 102.76560 | 9853 ft | 222 kts | 39° |
| 2026-05-08 11:31 | 24.94046 | 102.77605 | 9840 ft | 219 kts | 39° |
| 2026-05-08 11:31 | 24.95243 | 102.78647 | 9846 ft | 219 kts | 39° |
| 2026-05-08 11:31 | 24.96438 | 102.79688 | 9847 ft | 219 kts | 39° |
| 2026-05-08 11:31 | 24.97634 | 102.80729 | 9862 ft | 219 kts | 39° |
| 2026-05-08 11:32 | 24.98835 | 102.81775 | 9792 ft | 220 kts | 39° |
| 2026-05-08 11:32 | 25.00026 | 102.82811 | 9531 ft | 215 kts | 40° |
| 2026-05-08 11:32 | 25.01173 | 102.83811 | 9268 ft | 210 kts | 39° |
| 2026-05-08 11:32 | 25.02291 | 102.84784 | 9035 ft | 195 kts | 39° |
| 2026-05-08 11:33 | 25.03306 | 102.85669 | 8807 ft | 177 kts | 40° |
| 2026-05-08 11:33 | 25.04258 | 102.86501 | 8587 ft | 173 kts | 40° |
| 2026-05-08 11:33 | 25.05195 | 102.87318 | 8362 ft | 171 kts | 40° |
| 2026-05-08 11:33 | 25.06127 | 102.88131 | 8141 ft | 170 kts | 40° |
| 2026-05-08 11:34 | 25.07053 | 102.88934 | 7920 ft | 169 kts | 39° |
| 2026-05-08 11:34 | 25.07971 | 102.89736 | 7658 ft | 167 kts | 39° |
| 2026-05-08 11:34 | 25.08862 | 102.90521 | 7396 ft | 162 kts | 37° |
| 2026-05-08 11:34 | 25.09745 | 102.91279 | 7098 ft | 161 kts | 37° |
| 2026-05-08 11:35 | 25.10609 | 102.92030 | 6917 ft | 150 kts | 38° |
| 2026-05-08 11:35 | 25.11262 | 102.92598 | 6906 ft | 87 kts | 38° |
| 2026-05-08 11:35 | 25.11582 | 102.92878 | 6906 ft | 28 kts | 39° |
| 2026-05-08 11:35 | 25.11692 | 102.93022 | 6917 ft | 24 kts | 61° |
| 2026-05-08 11:36 | 25.11729 | 102.93107 | 6910 ft | 8 kts | 65° |
| 2026-05-08 11:36 | 25.11749 | 102.93156 | 6907 ft | 6 kts | 68° |
| 2026-05-08 11:36 | 25.11745 | 102.93183 | 6904 ft | 2 kts | 126° |
| 2026-05-08 11:36 | 25.11733 | 102.93194 | 6904 ft | 3 kts | 146° |
| 2026-05-08 11:37 | 25.11697 | 102.93203 | 6910 ft | 8 kts | 182° |
| 2026-05-08 11:37 | 25.11640 | 102.93170 | 6904 ft | 12 kts | 218° |
| 2026-05-08 11:37 | 25.11564 | 102.93104 | 6905 ft | 16 kts | 218° |
| 2026-05-08 11:37 | 25.11477 | 102.93030 | 6905 ft | 7 kts | 205° |
| 2026-05-08 11:38 | 25.11425 | 102.93062 | 6910 ft | 12 kts | 129° |
| 2026-05-08 11:38 | 25.11364 | 102.93147 | 6912 ft | 17 kts | 128° |
| 2026-05-08 11:38 | 25.11285 | 102.93257 | 6911 ft | 21 kts | 128° |
| 2026-05-08 11:38 | 25.11191 | 102.93386 | 6903 ft | 23 kts | 128° |
| 2026-05-08 11:39 | 25.11094 | 102.93522 | 6901 ft | 21 kts | 128° |
| 2026-05-08 11:39 | 25.11025 | 102.93617 | 6900 ft | 8 kts | 129° |
| 2026-05-08 11:39 | 25.10992 | 102.93661 | 6899 ft | 6 kts | 125° |
| 2026-05-08 11:39 | 25.10994 | 102.93698 | 6899 ft | 4 kts | 58° |
| 2026-05-08 11:40 | 25.11006 | 102.93711 | 6899 ft | 1 kts | 40° |
| 2026-05-08 11:40 | 25.11018 | 102.93721 | 6899 ft | 2 kts | 40° |
| 2026-05-08 11:40 | 25.11025 | 102.93728 | 6898 ft | 0 kts | 39° |
| 2026-05-08 11:40 | 25.11028 | 102.93731 | 6898 ft | 0 kts | 39° |